Aviation Digital Data Service (ADDS)

Output produced by METARs form (0711 UTC 23 February 2017)
found at http://aviationweather.gov/adds/metars/
 
KSSI 230541Z 2306/2406 05010KT P6SM VCSH SCT008 BKN015 OVC030 
     FM231200 05012G20KT P6SM VCSH SCT020 BKN030 OVC100 
     FM231500 05015G26KT P6SM SCT030 BKN150 
     FM231800 05013G25KT P6SM SCT020 BKN040 
     FM240000 04010KT P6SM SCT020 BKN040